Alsbach, Germany

12:37 AM CEST on September 01, 2015 (GMT +0200)
Deizisau | | Change Station
CLOSE
Current Station
Personal Weather Station
Location: Deizisau, BADEN-WüRTTEMBERG
Elevation: 804 ft
Nearby Weather Stations

Elev 804 ft 48.71 °N, 9.38 °E | Updated 10 seconds ago

Clear
Clear
70.7 °F
Feels Like 74 °F
N
0.0
Wind Variable Wind from WSW
Gusts 0.0 mph

Today
High -- | Low -- °F
--% Chance of Precip.
Yesterday
High -- | Low -- °F
Precip. -- in
6:38 AM 8:05 PM
Waning Gibbous, 93% visible
Pressure 29.89 in
Visibility -9999.0 miles
Clouds
Heat Index 74 °F
Dew Point 60 °F
Humidity 69%
Rainfall 0.00 in
Snow Depth Not available.
UV 0.0 out of 12
Pollen Not available.
Air Quality Not available.
Flu Activity Not available.
METAR EDDS 312220Z 26004KT CAVOK 21/12 Q1012
Pressure 29.89 in
Visibility -9999.0 miles
Clouds
Heat Index 74 °F
Dew Point 60 °F
Humidity 69%
Rainfall 0.00 in
Snow Depth Not available.
UV 0.0 out of 12
Pollen Not available.
Air Quality Not available.
Flu Activity Not available.
METAR EDDS 312220Z 26004KT CAVOK 21/12 Q1012

10-Day Weather Forecast

×

Almanac

Astronomy

Sep. 01, 2015 Rise Set
Actual Time
Civil Twilight
Nautical Twilight
Astronomical Twilight
Moon
Length of Visible Light
Length of Day
Tomorrow will be .
, % of the Moon is Illuminated

Today's Extremes

Country Highs Country Lows

Community

WunderPhotos

Upload Photos

1,851,390 photos uploaded!

WunderBlogs® & News

Nearby

Air Quality

  Air Quality AQ Index Pollutant
Not available.

Snow Depth

Station Depth Elevation

Earthquake Activity

City Distance Mag. Time & Date
Minimum magnitude displayed is 2.5.

Coastal Water Temperatures

Place Temperature

Stations

Nearby Weather Stations

Station Location Temp. Windchill Dew Point Humidity Wind Precip. Elev Updated Type